Time;durP1;ratioP1;P1;durP2;ratioP2;P2;SDS_P1;SDS_P2;PMS_P1;PMS_P2;Temp;Humidity;BMP_temperature;BMP_pressure;BME280_temperature;BME280_humidity;BME280_pressure;Samples;Min_cycle;Max_cycle;Signal;HPM_P1;HPM_P2
2023/03/19 00:01:33;;;;;;;8.25;7.03;;;;;;;;;;5057640;28;20432;-79
2023/03/19 00:04:00;;;;;;;7.90;7.15;;;;;;;;;;5062062;28;20432;-79
2023/03/19 00:06:26;;;;;;;8.60;7.30;;;;;;;;;;5060223;28;20415;-79
2023/03/19 00:08:52;;;;;;;7.78;7.07;;;;;;;;;;5058393;28;20433;-79
2023/03/19 00:11:20;;;;;;;9.93;8.30;;;;;;;;;;5057387;28;20421;-79
2023/03/19 00:13:46;;;;;;;7.87;7.13;;;;;;;;;;5064046;28;20432;-79
2023/03/19 00:16:13;;;;;;;8.20;7.40;;;;;;;;;;5067478;28;21109;-79
2023/03/19 00:18:39;;;;;;;8.40;7.60;;;;;;;;;;5063626;28;20408;-79
2023/03/19 00:21:06;;;;;;;8.48;7.68;;;;;;;;;;5064996;28;20411;-79
2023/03/19 00:23:33;;;;;;;8.05;7.25;;;;;;;;;;5061403;28;20934;-79
2023/03/19 00:25:59;;;;;;;8.68;7.88;;;;;;;;;;5065190;28;20419;-79
2023/03/19 00:28:27;;;;;;;9.18;8.27;;;;;;;;;;5063822;28;20412;-79
2023/03/19 00:30:53;;;;;;;8.88;7.68;;;;;;;;;;5060676;28;20922;-79
2023/03/19 00:33:20;;;;;;;8.02;7.32;;;;;;;;;;5066632;28;20426;-79
2023/03/19 00:35:47;;;;;;;8.40;7.47;;;;;;;;;;5045888;28;20496;-79
2023/03/19 00:38:13;;;;;;;8.27;7.47;;;;;;;;;;5065538;28;20791;-79
2023/03/19 00:40:41;;;;;;;7.90;7.10;;;;;;;;;;5063873;28;20448;-79
2023/03/19 00:43:07;;;;;;;7.97;7.20;;;;;;;;;;5062696;28;20420;-79
2023/03/19 00:45:35;;;;;;;9.53;8.13;;;;;;;;;;5058273;28;20429;-79
2023/03/19 00:48:02;;;;;;;9.43;8.30;;;;;;;;;;5067192;28;20978;-79
2023/03/19 00:50:28;;;;;;;8.57;7.68;;;;;;;;;;5060485;28;20406;-79
2023/03/19 00:52:55;;;;;;;8.18;7.30;;;;;;;;;;5064712;28;20420;-79
2023/03/19 00:55:23;;;;;;;7.85;7.05;;;;;;;;;;5060279;28;20798;-79
2023/03/19 00:57:50;;;;;;;9.07;7.78;;;;;;;;;;5062091;28;20416;-79
2023/03/19 01:00:17;;;;;;;10.02;7.78;;;;;;;;;;5067371;28;20428;-79
2023/03/19 01:02:45;;;;;;;8.80;7.97;;;;;;;;;;5060282;28;20413;-79
2023/03/19 01:05:12;;;;;;;9.90;8.20;;;;;;;;;;5064731;28;20905;-79
2023/03/19 01:07:39;;;;;;;9.50;8.60;;;;;;;;;;5061454;28;20412;-79
2023/03/19 01:10:06;;;;;;;9.60;8.60;;;;;;;;;;5060233;28;20412;-79
2023/03/19 01:12:32;;;;;;;13.32;8.65;;;;;;;;;;5064270;28;20416;-79
2023/03/19 01:14:59;;;;;;;14.60;8.70;;;;;;;;;;5068725;28;20883;-79
2023/03/19 01:17:25;;;;;;;9.07;8.18;;;;;;;;;;5059158;28;20442;-79
2023/03/19 01:19:53;;;;;;;10.02;8.80;;;;;;;;;;5063920;28;20419;-79
2023/03/19 01:22:20;;;;;;;9.82;8.50;;;;;;;;;;5066416;28;20412;-79
2023/03/19 01:24:46;;;;;;;9.70;8.70;;;;;;;;;;5063925;28;20427;-79
2023/03/19 01:27:12;;;;;;;9.70;8.60;;;;;;;;;;5058999;28;20427;-79
2023/03/19 01:29:39;;;;;;;10.10;8.70;;;;;;;;;;5061988;28;20465;-79
2023/03/19 01:32:06;;;;;;;9.70;8.70;;;;;;;;;;5062819;28;20417;-79
2023/03/19 01:34:32;;;;;;;9.38;8.48;;;;;;;;;;5064511;28;20424;-79
2023/03/19 01:37:00;;;;;;;8.90;8.00;;;;;;;;;;5061785;28;20495;-79
2023/03/19 01:39:27;;;;;;;10.20;9.20;;;;;;;;;;5063573;28;20447;-79
2023/03/19 01:41:54;;;;;;;9.70;8.70;;;;;;;;;;5060437;28;20419;-79
2023/03/19 01:44:24;;;;;;;10.95;8.98;;;;;;;;;;5064495;28;20425;-79
2023/03/19 01:46:51;;;;;;;11.10;8.73;;;;;;;;;;5059918;28;20404;-79
2023/03/19 01:49:18;;;;;;;10.07;9.05;;;;;;;;;;5065854;28;20426;-79
2023/03/19 01:51:45;;;;;;;10.30;9.30;;;;;;;;;;5063128;28;20409;-79
2023/03/19 01:54:14;;;;;;;9.35;8.45;;;;;;;;;;5061402;28;20432;-79
2023/03/19 01:56:42;;;;;;;10.20;9.20;;;;;;;;;;5060318;28;20414;-79
2023/03/19 01:59:11;;;;;;;10.67;9.57;;;;;;;;;;5060532;28;20462;-79
2023/03/19 02:01:39;;;;;;;10.45;9.45;;;;;;;;;;5059664;28;20415;-79
2023/03/19 02:04:07;;;;;;;10.07;9.07;;;;;;;;;;5060627;28;20419;-79
2023/03/19 02:06:34;;;;;;;10.65;9.48;;;;;;;;;;5062924;28;20431;-79
2023/03/19 02:09:00;;;;;;;10.00;9.00;;;;;;;;;;5063682;28;20438;-79
2023/03/19 02:11:28;;;;;;;11.23;9.60;;;;;;;;;;5055614;28;20421;-79
2023/03/19 02:13:54;;;;;;;9.60;8.70;;;;;;;;;;5060958;28;20430;-79
2023/03/19 02:16:21;;;;;;;11.40;9.50;;;;;;;;;;5065803;28;20906;-79
2023/03/19 02:18:47;;;;;;;9.70;8.77;;;;;;;;;;5062031;28;20416;-79
2023/03/19 02:21:15;;;;;;;9.68;8.68;;;;;;;;;;5063568;28;20917;-79
2023/03/19 02:23:47;;;;;;;10.17;9.07;;;;;;;;;;5063185;28;20400;-79
2023/03/19 02:26:16;;;;;;;10.07;9.00;;;;;;;;;;5062455;28;20446;-79
2023/03/19 02:28:44;;;;;;;11.50;9.50;;;;;;;;;;5061480;28;20447;-79
2023/03/19 02:31:11;;;;;;;10.98;9.82;;;;;;;;;;5060967;28;20485;-79
2023/03/19 02:33:37;;;;;;;9.98;8.98;;;;;;;;;;5063018;28;20942;-79
2023/03/19 02:36:05;;;;;;;13.85;10.15;;;;;;;;;;5061209;28;20434;-79
2023/03/19 02:38:33;;;;;;;10.63;9.52;;;;;;;;;;5059709;28;20429;-79
2023/03/19 02:41:00;;;;;;;11.80;8.75;;;;;;;;;;5062147;28;20467;-79
2023/03/19 02:43:28;;;;;;;10.80;9.70;;;;;;;;;;5062117;28;20403;-79
2023/03/19 02:45:55;;;;;;;10.25;8.73;;;;;;;;;;5062939;28;20493;-79
2023/03/19 02:48:21;;;;;;;10.10;9.10;;;;;;;;;;5062294;28;20417;-79
2023/03/19 02:50:47;;;;;;;9.95;8.95;;;;;;;;;;5061452;28;20431;-79
2023/03/19 02:53:14;;;;;;;9.55;8.55;;;;;;;;;;5064214;28;20429;-79
2023/03/19 02:55:41;;;;;;;9.82;8.82;;;;;;;;;;5062542;28;20510;-79
2023/03/19 02:58:07;;;;;;;9.60;8.70;;;;;;;;;;5059070;28;20412;-79
2023/03/19 03:00:36;;;;;;;10.73;9.50;;;;;;;;;;5064177;28;20454;-79
2023/03/19 03:03:02;;;;;;;10.35;8.80;;;;;;;;;;5060505;28;20934;-79
2023/03/19 03:05:29;;;;;;;9.57;8.57;;;;;;;;;;5060040;28;20920;-80
2023/03/19 03:07:55;;;;;;;9.70;8.20;;;;;;;;;;5062181;28;20422;-80
2023/03/19 03:10:22;;;;;;;10.90;9.30;;;;;;;;;;5061320;28;20913;-79
2023/03/19 03:12:48;;;;;;;10.03;8.70;;;;;;;;;;5063597;28;20454;-79
2023/03/19 03:15:15;;;;;;;11.40;9.30;;;;;;;;;;5058828;28;20432;-79
2023/03/19 03:17:43;;;;;;;9.95;8.95;;;;;;;;;;5064618;28;20420;-79
2023/03/19 03:20:11;;;;;;;10.50;9.40;;;;;;;;;;5066279;28;20490;-79
2023/03/19 03:22:38;;;;;;;11.65;9.32;;;;;;;;;;5062885;28;20420;-79
2023/03/19 03:25:05;;;;;;;10.95;9.85;;;;;;;;;;5062627;28;20431;-79
2023/03/19 03:27:31;;;;;;;10.27;9.27;;;;;;;;;;5065334;28;20421;-79
2023/03/19 03:29:58;;;;;;;11.05;9.85;;;;;;;;;;5060821;28;21592;-79
2023/03/19 03:32:25;;;;;;;10.73;9.73;;;;;;;;;;5060461;28;20424;-79
2023/03/19 03:34:53;;;;;;;10.07;9.07;;;;;;;;;;5060625;28;20459;-79
2023/03/19 03:37:19;;;;;;;11.00;9.80;;;;;;;;;;5059508;28;20415;-79
2023/03/19 03:39:45;;;;;;;11.00;9.90;;;;;;;;;;5062414;28;20423;-79
2023/03/19 03:42:12;;;;;;;11.23;9.73;;;;;;;;;;5059577;28;20429;-79
2023/03/19 03:44:38;;;;;;;10.40;9.40;;;;;;;;;;5059877;28;20427;-79
2023/03/19 03:47:04;;;;;;;11.65;10.45;;;;;;;;;;5061182;28;20413;-79
2023/03/19 03:49:31;;;;;;;11.18;10.07;;;;;;;;;;5062185;28;20415;-79
2023/03/19 03:51:58;;;;;;;11.25;10.15;;;;;;;;;;5064216;28;20409;-79
2023/03/19 03:54:25;;;;;;;11.63;10.40;;;;;;;;;;5062677;28;20966;-79
2023/03/19 03:56:51;;;;;;;11.07;9.98;;;;;;;;;;5065514;28;20409;-79
2023/03/19 03:59:19;;;;;;;12.40;11.10;;;;;;;;;;5064192;28;20843;-79
2023/03/19 04:01:45;;;;;;;12.50;11.20;;;;;;;;;;5064986;28;20420;-79
2023/03/19 04:04:12;;;;;;;12.93;11.10;;;;;;;;;;5064331;28;20413;-79
2023/03/19 04:06:38;;;;;;;12.48;10.80;;;;;;;;;;5062403;28;20409;-80
2023/03/19 04:09:06;;;;;;;13.93;11.50;;;;;;;;;;5062142;28;20427;-79
2023/03/19 04:11:33;;;;;;;12.73;10.93;;;;;;;;;;5061981;28;20431;-79
2023/03/19 04:14:00;;;;;;;13.38;11.20;;;;;;;;;;5066059;28;20442;-79
2023/03/19 04:16:27;;;;;;;15.80;13.38;;;;;;;;;;5067269;28;20494;-79
2023/03/19 04:18:53;;;;;;;14.15;12.63;;;;;;;;;;5063826;28;20436;-79
2023/03/19 04:21:20;;;;;;;13.18;11.77;;;;;;;;;;5062312;28;20512;-79
2023/03/19 04:23:46;;;;;;;14.25;11.70;;;;;;;;;;5064362;28;20531;-79
2023/03/19 04:26:14;;;;;;;14.35;12.55;;;;;;;;;;5062282;28;20949;-79
2023/03/19 04:28:41;;;;;;;13.10;11.40;;;;;;;;;;5066557;28;20424;-79
2023/03/19 04:31:08;;;;;;;15.15;12.45;;;;;;;;;;5062364;28;20412;-79
2023/03/19 04:33:34;;;;;;;14.77;13.05;;;;;;;;;;5070710;28;20422;-79
2023/03/19 04:36:02;;;;;;;14.68;13.18;;;;;;;;;;5063274;28;20427;-79
2023/03/19 04:38:29;;;;;;;16.45;14.48;;;;;;;;;;5066140;28;20904;-79
2023/03/19 04:40:56;;;;;;;17.00;13.45;;;;;;;;;;5064694;28;20419;-79
2023/03/19 04:43:24;;;;;;;14.50;12.52;;;;;;;;;;5063100;28;20432;-79
2023/03/19 04:45:50;;;;;;;15.52;13.18;;;;;;;;;;5061783;28;20413;-79
2023/03/19 04:48:17;;;;;;;15.48;13.27;;;;;;;;;;5063859;28;20481;-79
2023/03/19 04:50:45;;;;;;;15.95;13.88;;;;;;;;;;5064732;28;20772;-79
2023/03/19 04:53:12;;;;;;;16.40;13.87;;;;;;;;;;5061377;28;20825;-79
2023/03/19 04:55:39;;;;;;;15.68;13.23;;;;;;;;;;5064443;28;20431;-79
2023/03/19 04:58:07;;;;;;;14.23;12.73;;;;;;;;;;5063160;28;20421;-79
2023/03/19 05:00:35;;;;;;;16.15;13.50;;;;;;;;;;5063972;28;20431;-79
2023/03/19 05:03:01;;;;;;;16.97;13.77;;;;;;;;;;5065066;28;20415;-79
2023/03/19 05:05:28;;;;;;;15.15;13.55;;;;;;;;;;5061179;28;20423;-79
2023/03/19 05:07:56;;;;;;;16.80;13.27;;;;;;;;;;5064044;28;20426;-79
2023/03/19 05:10:22;;;;;;;15.15;13.50;;;;;;;;;;5061398;28;20425;-79
2023/03/19 05:12:51;;;;;;;17.53;14.77;;;;;;;;;;5061605;28;22320;-79
2023/03/19 05:15:17;;;;;;;18.67;15.25;;;;;;;;;;5063608;28;20458;-79
2023/03/19 05:17:45;;;;;;;16.90;15.20;;;;;;;;;;5063035;28;20424;-79
2023/03/19 05:20:13;;;;;;;16.40;14.55;;;;;;;;;;5065051;28;20412;-79
2023/03/19 05:22:40;;;;;;;16.40;14.60;;;;;;;;;;5062460;28;20413;-79
2023/03/19 05:25:07;;;;;;;18.42;15.23;;;;;;;;;;5065753;28;20501;-79
2023/03/19 05:27:33;;;;;;;16.45;14.77;;;;;;;;;;5060256;28;20432;-79
2023/03/19 05:30:00;;;;;;;16.38;14.18;;;;;;;;;;5063734;28;20403;-79
2023/03/19 05:32:26;;;;;;;17.63;15.00;;;;;;;;;;5061891;28;20411;-79
2023/03/19 05:34:54;;;;;;;16.13;14.43;;;;;;;;;;5061655;28;20457;-79
2023/03/19 05:37:20;;;;;;;17.52;15.15;;;;;;;;;;5061555;28;20784;-79
2023/03/19 05:39:47;;;;;;;18.17;15.65;;;;;;;;;;5064361;28;20440;-79
2023/03/19 05:42:13;;;;;;;17.25;15.18;;;;;;;;;;5063899;28;20419;-79
2023/03/19 05:44:40;;;;;;;15.95;14.25;;;;;;;;;;5064937;28;20424;-79
2023/03/19 05:47:07;;;;;;;19.25;15.27;;;;;;;;;;5058350;28;20417;-79
2023/03/19 05:49:34;;;;;;;20.58;15.77;;;;;;;;;;5062650;28;20435;-79
2023/03/19 05:52:01;;;;;;;18.85;15.15;;;;;;;;;;5063361;28;20420;-79
2023/03/19 05:54:28;;;;;;;19.02;15.00;;;;;;;;;;5062738;28;20422;-79
2023/03/19 05:56:54;;;;;;;17.35;15.40;;;;;;;;;;5060131;28;20526;-79
2023/03/19 05:59:21;;;;;;;19.30;15.68;;;;;;;;;;5061555;28;20441;-79
2023/03/19 06:01:48;;;;;;;19.05;16.27;;;;;;;;;;5059796;28;20415;-79
2023/03/19 06:04:14;;;;;;;17.65;15.77;;;;;;;;;;5067092;28;20423;-79
2023/03/19 06:06:41;;;;;;;16.65;14.88;;;;;;;;;;5063565;28;20895;-79
2023/03/19 06:09:08;;;;;;;19.58;15.63;;;;;;;;;;5062827;28;20442;-79
2023/03/19 06:11:38;;;;;;;17.70;15.38;;;;;;;;;;5058909;28;20433;-79
2023/03/19 06:14:04;;;;;;;20.52;15.68;;;;;;;;;;5062100;28;20419;-79
2023/03/19 06:16:31;;;;;;;17.55;15.70;;;;;;;;;;5061754;28;20426;-79
2023/03/19 06:18:57;;;;;;;18.23;16.33;;;;;;;;;;5061545;28;20417;-79
2023/03/19 06:21:28;;;;;;;16.40;14.70;;;;;;;;;;5062100;28;20428;-79
2023/03/19 06:23:55;;;;;;;17.02;15.30;;;;;;;;;;5064697;28;20431;-79
2023/03/19 06:26:22;;;;;;;22.50;17.97;;;;;;;;;;5062165;28;20516;-79
2023/03/19 06:28:49;;;;;;;19.83;17.23;;;;;;;;;;5060357;28;20483;-79
2023/03/19 06:31:15;;;;;;;20.00;17.38;;;;;;;;;;5067880;28;20438;-80
2023/03/19 06:33:42;;;;;;;20.53;17.97;;;;;;;;;;5064636;28;20944;-80
2023/03/19 06:36:09;;;;;;;21.50;18.25;;;;;;;;;;5064561;28;20427;-80
2023/03/19 06:38:35;;;;;;;20.45;17.70;;;;;;;;;;5064427;28;20419;-80
2023/03/19 06:41:02;;;;;;;20.13;17.23;;;;;;;;;;5061101;28;20421;-80
2023/03/19 06:43:30;;;;;;;21.38;17.85;;;;;;;;;;5063894;28;20423;-80
2023/03/19 06:45:56;;;;;;;20.67;18.50;;;;;;;;;;5065383;28;20427;-80
2023/03/19 06:48:22;;;;;;;23.50;19.17;;;;;;;;;;5058925;28;20420;-80
2023/03/19 06:50:49;;;;;;;27.13;22.80;;;;;;;;;;5063334;28;20495;-80
2023/03/19 06:53:15;;;;;;;22.60;19.92;;;;;;;;;;5063537;28;20420;-80
2023/03/19 06:55:42;;;;;;;21.85;19.15;;;;;;;;;;5065135;28;20423;-80
2023/03/19 06:58:08;;;;;;;21.40;18.90;;;;;;;;;;5062790;28;20790;-80
2023/03/19 07:00:36;;;;;;;23.58;20.70;;;;;;;;;;5064380;28;20794;-80
2023/03/19 07:03:04;;;;;;;22.38;18.85;;;;;;;;;;5066347;28;20420;-80
2023/03/19 07:05:31;;;;;;;23.58;20.48;;;;;;;;;;5064769;28;20800;-80
2023/03/19 07:07:59;;;;;;;24.40;19.95;;;;;;;;;;5060666;28;20781;-81
2023/03/19 07:10:25;;;;;;;24.00;19.95;;;;;;;;;;5063361;28;20801;-81
2023/03/19 07:12:51;;;;;;;21.05;18.20;;;;;;;;;;5061915;28;20423;-81
2023/03/19 07:15:20;;;;;;;22.15;18.90;;;;;;;;;;5065668;28;20434;-82
2023/03/19 07:17:48;;;;;;;22.07;19.20;;;;;;;;;;5061911;28;20522;-81
2023/03/19 07:20:15;;;;;;;20.55;17.90;;;;;;;;;;5060474;28;20432;-81
2023/03/19 07:22:41;;;;;;;20.35;17.77;;;;;;;;;;5062764;28;20421;-80
2023/03/19 07:25:08;;;;;;;20.58;17.85;;;;;;;;;;5061939;28;20421;-80
2023/03/19 07:27:34;;;;;;;20.52;17.63;;;;;;;;;;5060766;28;20425;-82
2023/03/19 07:30:00;;;;;;;20.63;17.63;;;;;;;;;;5064804;28;20428;-82
2023/03/19 07:32:27;;;;;;;19.20;16.75;;;;;;;;;;5064197;28;20420;-80
2023/03/19 07:34:55;;;;;;;20.98;16.65;;;;;;;;;;5064140;28;20452;-79
2023/03/19 07:37:21;;;;;;;21.38;17.83;;;;;;;;;;5063039;28;20412;-80
2023/03/19 07:39:47;;;;;;;22.77;19.13;;;;;;;;;;5064723;28;20429;-80
2023/03/19 07:42:14;;;;;;;19.45;16.90;;;;;;;;;;5062362;28;20415;-80
2023/03/19 07:44:40;;;;;;;20.50;17.38;;;;;;;;;;5062322;28;20431;-80
2023/03/19 07:47:06;;;;;;;20.20;17.20;;;;;;;;;;5063803;28;20820;-80
2023/03/19 07:49:33;;;;;;;20.98;18.77;;;;;;;;;;5064694;28;20429;-80
2023/03/19 07:52:01;;;;;;;19.30;17.25;;;;;;;;;;5065393;28;20423;-82
2023/03/19 07:54:27;;;;;;;18.88;16.88;;;;;;;;;;5063053;28;20912;-81
2023/03/19 07:56:53;;;;;;;20.13;17.35;;;;;;;;;;5063095;28;20417;-81
2023/03/19 07:59:20;;;;;;;20.48;18.02;;;;;;;;;;5063629;28;20428;-81
2023/03/19 08:01:48;;;;;;;19.05;16.98;;;;;;;;;;5062845;28;20413;-82
2023/03/19 08:04:15;;;;;;;21.25;17.17;;;;;;;;;;5066116;28;20433;-81
2023/03/19 08:06:44;;;;;;;24.05;17.98;;;;;;;;;;5064510;28;21065;-82
2023/03/19 08:09:12;;;;;;;20.83;17.10;;;;;;;;;;5066270;28;20439;-81
2023/03/19 08:11:38;;;;;;;18.67;16.67;;;;;;;;;;5063729;28;20950;-81
2023/03/19 08:14:05;;;;;;;18.77;16.88;;;;;;;;;;5062725;28;20432;-81
2023/03/19 08:16:31;;;;;;;19.77;17.15;;;;;;;;;;5061138;28;20425;-78
2023/03/19 08:18:59;;;;;;;21.48;17.33;;;;;;;;;;5066542;28;20442;-82
2023/03/19 08:21:26;;;;;;;17.40;15.60;;;;;;;;;;5068313;28;20440;-79
2023/03/19 08:23:52;;;;;;;17.92;16.13;;;;;;;;;;5062665;28;21101;-79
2023/03/19 08:26:20;;;;;;;20.95;16.45;;;;;;;;;;5060882;28;20428;-80
2023/03/19 08:28:48;;;;;;;17.88;15.98;;;;;;;;;;5064688;28;20415;-80
2023/03/19 08:31:15;;;;;;;17.85;16.00;;;;;;;;;;5062646;28;20425;-80
2023/03/19 08:33:41;;;;;;;20.60;16.50;;;;;;;;;;5062816;28;20432;-80
2023/03/19 08:36:09;;;;;;;18.25;15.60;;;;;;;;;;5070580;28;20450;-79
2023/03/19 08:38:35;;;;;;;17.60;15.57;;;;;;;;;;5069801;28;20928;-82
2023/03/19 08:41:03;;;;;;;19.45;15.50;;;;;;;;;;5069349;28;20423;-82
2023/03/19 08:43:31;;;;;;;16.70;15.00;;;;;;;;;;5064868;28;20498;-79
2023/03/19 08:45:57;;;;;;;17.60;14.90;;;;;;;;;;5066564;28;20417;-80
2023/03/19 08:48:24;;;;;;;18.63;15.73;;;;;;;;;;5066872;28;20415;-80
2023/03/19 08:50:52;;;;;;;16.98;15.27;;;;;;;;;;5064326;28;20428;-81
2023/03/19 08:53:19;;;;;;;16.50;14.80;;;;;;;;;;5064010;28;20429;-80
2023/03/19 08:55:50;;;;;;;16.70;14.43;;;;;;;;;;5065684;28;20418;-80
2023/03/19 08:58:17;;;;;;;16.10;14.40;;;;;;;;;;5063857;28;21043;-81
2023/03/19 09:00:44;;;;;;;17.15;14.90;;;;;;;;;;5065944;28;20897;-82
2023/03/19 09:03:11;;;;;;;16.42;14.73;;;;;;;;;;5066383;28;20411;-79
2023/03/19 09:05:37;;;;;;;17.10;15.25;;;;;;;;;;5067397;28;20425;-80
2023/03/19 09:08:05;;;;;;;16.80;15.05;;;;;;;;;;5067839;28;20426;-82
2023/03/19 09:10:32;;;;;;;17.42;14.65;;;;;;;;;;5068709;28;20406;-80
2023/03/19 09:12:58;;;;;;;15.80;14.10;;;;;;;;;;5065253;28;20417;-80
2023/03/19 09:15:25;;;;;;;15.75;14.05;;;;;;;;;;5063370;28;20411;-80
2023/03/19 09:17:54;;;;;;;16.23;13.75;;;;;;;;;;5066559;28;20427;-80
2023/03/19 09:20:21;;;;;;;16.38;14.65;;;;;;;;;;5064027;28;20436;-80
2023/03/19 09:22:47;;;;;;;15.23;13.73;;;;;;;;;;5065519;28;20421;-80
2023/03/19 09:25:14;;;;;;;16.90;14.30;;;;;;;;;;5062161;28;20442;-79
2023/03/19 09:27:40;;;;;;;16.07;13.93;;;;;;;;;;5064953;28;20422;-81
2023/03/19 09:30:08;;;;;;;15.90;14.20;;;;;;;;;;5064971;28;20428;-79
2023/03/19 09:32:36;;;;;;;15.77;14.07;;;;;;;;;;5064626;28;20416;-79
2023/03/19 09:35:04;;;;;;;15.88;14.18;;;;;;;;;;5063499;28;20475;-79
2023/03/19 09:37:31;;;;;;;15.23;13.38;;;;;;;;;;5066140;28;20784;-79
2023/03/19 09:39:57;;;;;;;16.50;13.50;;;;;;;;;;5064576;28;20433;-79
2023/03/19 09:42:31;;;;;;;17.50;13.73;;;;;;;;;;5062523;28;20434;-79
2023/03/19 09:44:58;;;;;;;16.90;14.45;;;;;;;;;;5066891;28;20438;-79
2023/03/19 09:47:26;;;;;;;16.40;13.05;;;;;;;;;;5064993;28;20426;-79
2023/03/19 09:49:53;;;;;;;13.35;11.93;;;;;;;;;;5064639;28;20447;-80
2023/03/19 09:52:31;;;;;;;14.18;12.18;;;;;;;;;;5064383;28;20432;-79
2023/03/19 09:55:01;;;;;;;14.18;12.60;;;;;;;;;;5066327;28;20439;-79
2023/03/19 09:57:28;;;;;;;15.80;12.98;;;;;;;;;;5065716;28;20425;-79
2023/03/19 09:59:55;;;;;;;13.90;12.40;;;;;;;;;;5062214;28;20436;-79
2023/03/19 10:02:31;;;;;;;16.95;12.52;;;;;;;;;;5065112;28;20418;-80
2023/03/19 10:05:04;;;;;;;14.93;13.20;;;;;;;;;;5062034;28;20882;-79
2023/03/19 10:07:50;;;;;;;15.20;13.43;;;;;;;;;;5064524;28;20439;-79
2023/03/19 10:10:22;;;;;;;14.98;13.38;;;;;;;;;;5065466;28;20429;-79
2023/03/19 10:12:52;;;;;;;17.00;13.63;;;;;;;;;;5069340;28;20423;-79
2023/03/19 10:15:20;;;;;;;15.70;13.10;;;;;;;;;;5066497;28;20435;-79
2023/03/19 10:17:52;;;;;;;14.98;13.18;;;;;;;;;;5065068;28;20430;-79
2023/03/19 10:20:24;;;;;;;14.55;13.05;;;;;;;;;;5066999;28;20439;-80
2023/03/19 10:22:55;;;;;;;15.40;12.63;;;;;;;;;;5065249;28;20804;-79
2023/03/19 10:25:22;;;;;;;14.90;12.63;;;;;;;;;;5063361;28;20438;-79
2023/03/19 10:27:53;;;;;;;17.90;13.48;;;;;;;;;;5062774;28;20926;-79
2023/03/19 10:30:20;;;;;;;15.27;12.93;;;;;;;;;;5061447;28;20534;-79
2023/03/19 10:32:52;;;;;;;16.77;13.50;;;;;;;;;;5064112;28;20506;-79
2023/03/19 10:35:20;;;;;;;14.85;12.68;;;;;;;;;;5068347;28;20909;-79
2023/03/19 10:37:47;;;;;;;14.95;13.30;;;;;;;;;;5066724;28;20476;-79
2023/03/19 10:40:19;;;;;;;16.40;13.95;;;;;;;;;;5066249;28;20420;-79
2023/03/19 10:42:52;;;;;;;15.48;13.10;;;;;;;;;;5061667;28;20798;-79
2023/03/19 10:45:24;;;;;;;15.18;13.60;;;;;;;;;;5061737;28;20463;-79
2023/03/19 10:47:51;;;;;;;16.92;13.10;;;;;;;;;;5064327;28;20421;-79
2023/03/19 10:50:19;;;;;;;15.45;13.00;;;;;;;;;;5063672;28;20512;-79
2023/03/19 10:52:50;;;;;;;15.40;13.80;;;;;;;;;;5065138;28;20429;-78
2023/03/19 10:55:19;;;;;;;16.95;13.48;;;;;;;;;;5064455;28;20427;-79
2023/03/19 10:57:48;;;;;;;18.35;14.00;;;;;;;;;;5064724;28;20469;-79
2023/03/19 11:00:16;;;;;;;15.05;13.50;;;;;;;;;;5064752;28;20435;-79
2023/03/19 11:02:47;;;;;;;17.67;15.00;;;;;;;;;;5060200;28;20431;-79
2023/03/19 11:05:23;;;;;;;16.45;14.75;;;;;;;;;;5062993;28;20431;-79
2023/03/19 11:07:50;;;;;;;16.70;14.90;;;;;;;;;;5062073;28;20499;-79
2023/03/19 11:10:19;;;;;;;19.40;14.40;;;;;;;;;;5065851;28;20475;-78
2023/03/19 11:12:47;;;;;;;18.33;14.02;;;;;;;;;;5059945;28;20420;-79
2023/03/19 11:15:18;;;;;;;16.90;15.20;;;;;;;;;;5065378;28;20976;-79
2023/03/19 11:17:47;;;;;;;17.80;15.40;;;;;;;;;;5064797;28;20440;-79
2023/03/19 11:20:20;;;;;;;19.13;16.90;;;;;;;;;;5062877;28;20440;-78
2023/03/19 11:22:49;;;;;;;24.05;17.90;;;;;;;;;;5062547;28;20930;-78
2023/03/19 11:25:18;;;;;;;21.02;17.45;;;;;;;;;;5068305;28;20493;-80
2023/03/19 11:27:57;;;;;;;20.00;17.90;;;;;;;;;;5060453;28;20434;-79
2023/03/19 11:30:24;;;;;;;20.90;18.70;;;;;;;;;;5061554;28;20441;-78
2023/03/19 11:32:59;;;;;;;19.98;17.88;;;;;;;;;;5063304;28;20427;-78
2023/03/19 11:35:28;;;;;;;22.40;18.73;;;;;;;;;;5061946;28;20533;-78
2023/03/19 11:37:55;;;;;;;21.02;18.80;;;;;;;;;;5056802;28;20791;-79
2023/03/19 11:40:30;;;;;;;21.00;18.13;;;;;;;;;;5062909;28;20817;-78
2023/03/19 11:43:06;;;;;;;21.90;18.05;;;;;;;;;;5064959;28;20421;-81
2023/03/19 11:45:36;;;;;;;20.85;18.52;;;;;;;;;;5066028;28;20436;-80
2023/03/19 11:48:21;;;;;;;20.20;18.10;;;;;;;;;;5063198;28;20426;-80
2023/03/19 11:50:50;;;;;;;19.33;17.23;;;;;;;;;;5062279;28;20443;-80
2023/03/19 11:53:22;;;;;;;23.02;19.25;;;;;;;;;;5065420;28;20423;-80
2023/03/19 11:55:52;;;;;;;24.15;19.30;;;;;;;;;;5063969;28;20484;-80
2023/03/19 11:58:34;;;;;;;23.20;20.87;;;;;;;;;;5060411;28;20422;-80
2023/03/19 12:01:06;;;;;;;24.73;22.05;;;;;;;;;;5060996;28;20435;-80
2023/03/19 12:03:51;;;;;;;28.02;24.40;;;;;;;;;;5065403;28;20434;-80
2023/03/19 12:06:25;;;;;;;26.35;23.13;;;;;;;;;;5059746;28;20435;-80
2023/03/19 12:08:56;;;;;;;26.13;23.23;;;;;;;;;;5063265;28;20916;-79
2023/03/19 12:11:26;;;;;;;29.87;24.20;;;;;;;;;;5065434;28;20464;-80
2023/03/19 12:13:59;;;;;;;27.43;24.20;;;;;;;;;;5071382;28;20480;-79
2023/03/19 12:16:30;;;;;;;29.08;25.58;;;;;;;;;;5066702;28;20436;-81
2023/03/19 12:19:13;;;;;;;31.80;25.90;;;;;;;;;;5068230;28;20423;-80
2023/03/19 12:21:44;;;;;;;32.97;27.13;;;;;;;;;;5065999;28;20887;-80
2023/03/19 12:24:14;;;;;;;32.22;26.35;;;;;;;;;;5067362;28;20451;-80
2023/03/19 12:26:46;;;;;;;37.53;28.48;;;;;;;;;;5066814;28;20409;-80
2023/03/19 12:29:17;;;;;;;37.03;29.67;;;;;;;;;;5063749;28;20837;-80
2023/03/19 12:31:52;;;;;;;33.95;28.48;;;;;;;;;;5065599;28;20501;-80
2023/03/19 12:34:28;;;;;;;36.42;29.33;;;;;;;;;;5067413;28;20796;-80
2023/03/19 12:36:57;;;;;;;33.70;28.83;;;;;;;;;;5064866;28;20409;-80
2023/03/19 12:39:26;;;;;;;31.45;28.05;;;;;;;;;;5065117;28;20423;-79
2023/03/19 12:41:55;;;;;;;29.63;26.38;;;;;;;;;;5067848;28;20407;-80
2023/03/19 12:44:23;;;;;;;31.45;26.95;;;;;;;;;;5067692;28;20439;-80
2023/03/19 12:46:55;;;;;;;33.90;28.42;;;;;;;;;;5070065;28;20409;-81
2023/03/19 12:49:24;;;;;;;30.35;26.77;;;;;;;;;;5067546;28;20452;-79
2023/03/19 12:51:53;;;;;;;29.27;25.65;;;;;;;;;;5066516;28;20423;-78
2023/03/19 12:54:21;;;;;;;32.53;26.13;;;;;;;;;;5070733;28;20935;-78
2023/03/19 12:56:53;;;;;;;29.13;25.52;;;;;;;;;;5069147;28;22460;-78
2023/03/19 12:59:25;;;;;;;30.98;25.67;;;;;;;;;;5067223;28;20438;-79
2023/03/19 13:01:58;;;;;;;29.17;24.92;;;;;;;;;;5063056;28;20426;-79
2023/03/19 13:04:26;;;;;;;31.17;26.27;;;;;;;;;;5063009;28;20437;-80
2023/03/19 13:06:55;;;;;;;27.65;24.00;;;;;;;;;;5066850;28;20441;-79
2023/03/19 13:09:27;;;;;;;27.40;23.90;;;;;;;;;;5065195;28;20421;-79
2023/03/19 13:11:58;;;;;;;26.83;23.88;;;;;;;;;;5071499;28;20429;-79
2023/03/19 13:14:28;;;;;;;26.55;23.75;;;;;;;;;;5070056;28;20460;-79
2023/03/19 13:17:01;;;;;;;28.85;23.48;;;;;;;;;;5068143;28;20423;-81
2023/03/19 13:19:30;;;;;;;24.42;21.77;;;;;;;;;;5065737;28;20481;-78
2023/03/19 13:21:58;;;;;;;25.30;22.60;;;;;;;;;;5064245;28;20420;-78
2023/03/19 13:24:27;;;;;;;25.20;22.08;;;;;;;;;;5064527;28;20428;-78
2023/03/19 13:26:55;;;;;;;24.55;20.80;;;;;;;;;;5064496;28;20447;-78
2023/03/19 13:29:22;;;;;;;26.25;22.42;;;;;;;;;;5063122;28;20418;-78
2023/03/19 13:31:49;;;;;;;24.05;21.55;;;;;;;;;;5065435;28;21011;-78
2023/03/19 13:34:24;;;;;;;26.10;22.63;;;;;;;;;;5063553;28;20502;-80
2023/03/19 13:36:53;;;;;;;24.95;22.38;;;;;;;;;;5066229;28;20777;-78
2023/03/19 13:39:20;;;;;;;25.60;21.20;;;;;;;;;;5063744;28;20436;-81
2023/03/19 13:41:57;;;;;;;23.92;21.30;;;;;;;;;;5064136;28;20976;-79
2023/03/19 13:44:36;;;;;;;23.05;19.90;;;;;;;;;;5064202;28;20450;-79
2023/03/19 13:47:04;;;;;;;21.65;18.63;;;;;;;;;;5064178;28;20408;-78
2023/03/19 13:49:34;;;;;;;19.40;17.38;;;;;;;;;;5063947;28;20495;-79
2023/03/19 13:52:18;;;;;;;19.10;16.98;;;;;;;;;;5063904;28;20416;-78
2023/03/19 13:54:46;;;;;;;18.70;16.70;;;;;;;;;;5064230;28;20427;-78
2023/03/19 13:57:32;;;;;;;18.48;16.52;;;;;;;;;;5064599;28;20416;-78
2023/03/19 14:00:19;;;;;;;19.60;17.42;;;;;;;;;;5064125;28;20461;-78
2023/03/19 14:02:47;;;;;;;21.75;18.83;;;;;;;;;;5066707;28;20414;-78
2023/03/19 14:05:21;;;;;;;16.60;14.90;;;;;;;;;;5068374;28;20473;-80
2023/03/19 14:07:50;;;;;;;17.25;15.45;;;;;;;;;;5063312;28;20420;-78
2023/03/19 14:10:19;;;;;;;18.25;16.35;;;;;;;;;;5064433;28;20450;-78
2023/03/19 14:12:47;;;;;;;20.57;16.90;;;;;;;;;;5066767;28;20834;-78
2023/03/19 14:15:21;;;;;;;18.70;16.67;;;;;;;;;;5058631;28;20418;-78
2023/03/19 14:17:54;;;;;;;15.45;13.55;;;;;;;;;;5063920;28;20416;-78
2023/03/19 14:20:25;;;;;;;15.20;13.70;;;;;;;;;;5064406;28;20500;-78
2023/03/19 14:22:56;;;;;;;15.45;13.10;;;;;;;;;;5063823;28;20423;-78
2023/03/19 14:25:24;;;;;;;12.27;11.07;;;;;;;;;;5061592;28;20421;-78
2023/03/19 14:27:52;;;;;;;11.90;10.70;;;;;;;;;;5063668;28;21136;-78